CDT,Max TemperatureF,Mean TemperatureF,Min TemperatureF,Max Dew PointF,MeanDew PointF,Min DewpointF,Max Humidity, Mean Humidity, Min Humidity, Max Sea Level PressureIn, Mean Sea Level PressureIn, Min Sea Level PressureIn, Max VisibilityMiles, Mean VisibilityMiles, Min VisibilityMiles, Max Wind SpeedMPH, Mean Wind SpeedMPH, Max Gust SpeedMPH,PrecipitationIn, CloudCover, Events, WindDirDegrees
2013-3-1,24,18,8,14,10,3,79,65,43,30.32,30.28,30.22,10,10,10,15,9,21,0.00,4,,35
2013-3-2,21,11,0,9,3,-6,92,69,54,30.28,30.23,30.13,10,10,10,10,2,,0.00,2,,348
2013-3-3,26,6,-13,12,-2,-24,100,69,46,30.13,30.08,30.03,10,10,10,9,1,,0.00,0,,53
2013-3-4,33,20,6,18,11,-4,92,56,37,30.08,30.04,30.01,10,10,10,17,8,21,0.00,6,,84
2013-3-5,26,24,21,18,15,9,86,72,58,30.20,30.10,30.03,10,10,5,15,10,18,0.00,8,,49
2013-3-6,24,20,17,18,14,7,86,72,54,30.29,30.25,30.19,10,9,2,15,7,18,0.00,7,,326
2013-3-7,26,19,12,16,12,5,86,72,59,30.36,30.33,30.31,10,10,10,8,3,,0.00,3,,69
2013-3-8,42,30,17,25,16,9,74,61,49,30.33,30.26,30.14,10,10,10,12,6,20,0.00,0,,181
2013-3-9,35,32,30,30,26,18,87,73,52,30.13,29.88,29.72,10,8,2,16,7,23,0.33,6,,164
2013-3-10,35,32,28,30,26,19,87,79,65,29.94,29.86,29.72,10,9,2,20,8,25,0.02,8,,358
2013-3-11,28,24,21,25,20,16,93,80,74,29.85,29.72,29.65,10,6,1,16,10,25,0.00,8,,19
2013-3-12,21,19,17,16,13,7,86,78,58,30.00,29.83,29.70,10,2,0,16,10,25,0.00,8,,325
2013-3-13,26,17,8,7,3,-2,73,45,31,30.21,30.18,30.00,10,10,10,15,8,21,0.00,0,,315
2013-3-14,37,16,-4,25,16,-11,100,62,38,30.15,30.01,29.91,10,10,10,16,6,21,0.00,4,,228
2013-3-15,33,22,12,25,14,3,80,66,49,29.97,29.93,29.89,10,9,2,14,10,18,0.00,8,,19
2013-3-16,19,12,6,10,5,0,92,70,49,30.09,29.99,29.93,10,7,1,20,8,25,0.00,7,,308
2013-3-17,26,17,8,3,-1,-4,67,48,29,30.20,30.09,29.93,10,10,10,14,5,20,0.00,4,,135
2013-3-18,28,22,17,25,16,5,86,71,50,29.92,29.62,29.45,10,7,1,21,10,26,0.00,8,,162
2013-3-19,24,18,12,14,9,3,85,67,49,29.89,29.67,29.44,10,5,0,28,18,36,0.00,8,,277
2013-3-20,17,12,8,10,6,1,85,73,58,30.00,29.93,29.88,10,4,0,20,14,29,0.00,8,,285
2013-3-21,21,11,1,12,9,-6,86,74,58,29.98,29.97,29.95,10,7,2,13,7,,0.00,6,,288
2013-3-22,28,10,-7,21,5,-17,100,78,60,30.05,30.00,29.97,10,9,1,9,1,,0.00,5,,343
2013-3-23,28,16,6,21,16,-2,92,81,67,30.13,30.09,30.05,10,9,2,9,2,,0.00,8,,113
2013-3-24,30,21,10,23,17,7,93,76,64,30.05,29.99,29.96,10,9,1,12,6,18,0.00,5,,26
2013-3-25,30,19,8,23,16,1,92,75,55,30.13,30.03,29.95,10,10,3,16,4,22,0.00,7,,2
2013-3-26,35,30,24,25,21,19,86,73,52,30.21,30.17,30.13,10,10,10,10,5,,0.00,8,,271
2013-3-27,37,29,19,21,17,12,74,54,36,30.26,30.24,30.21,10,10,10,13,5,17,0.00,5,,285
2013-3-28,39,31,21,18,16,12,80,46,33,30.28,30.25,30.23,10,10,10,9,6,,0.00,0,,302
2013-3-29,48,30,12,21,16,7,85,50,27,30.25,30.17,30.07,10,10,10,12,3,,0.00,0,,234
2013-3-30,42,40,37,36,31,21,93,74,49,30.05,29.85,29.70,10,8,2,16,10,22,0.21,6,,209
2013-3-31,39,32,24,32,22,9,81,65,47,29.89,29.69,29.61,10,10,10,22,10,32,0.00,7,,280